Time;durP1;ratioP1;P1;durP2;ratioP2;P2;SDS_P1;SDS_P2;PMS_P1;PMS_P2;Temp;Humidity;BMP_temperature;BMP_pressure;BME280_temperature;BME280_humidity;BME280_pressure;Samples;Min_cycle;Max_cycle;Signal;HPM_P1;HPM_P2
2021/12/30 00:01:53;;;;;;;203.88;89.92;;;;;;;-0.06;78.62;96784.62;1786935;79;25769;-85
2021/12/30 00:04:22;;;;;;;191.80;84.92;;;;;;;-0.09;78.62;96784.94;1786968;79;27521;-85
2021/12/30 00:06:49;;;;;;;201.67;85.67;;;;;;;-0.09;78.74;96787.59;1786909;79;25738;-85
2021/12/30 00:09:18;;;;;;;174.82;80.07;;;;;;;-0.04;78.80;96783.47;1787038;79;25705;-85
2021/12/30 00:11:44;;;;;;;172.50;78.42;;;;;;;-0.02;78.79;96784.64;1786906;79;26054;-85
2021/12/30 00:14:11;;;;;;;171.13;78.67;;;;;;;0.01;78.79;96785.63;1803121;78;25638;-85
2021/12/30 00:16:38;;;;;;;160.12;76.07;;;;;;;0.04;78.84;96783.98;1805829;78;27545;-85
2021/12/30 00:19:05;;;;;;;147.55;72.62;;;;;;;0.05;78.77;96790.13;1805807;78;25759;-85
2021/12/30 00:21:32;;;;;;;146.02;70.25;;;;;;;0.07;78.80;96786.33;1805529;78;26284;-85
2021/12/30 00:23:58;;;;;;;137.22;65.30;;;;;;;0.10;78.76;96781.20;1805960;78;26138;-85
2021/12/30 00:26:25;;;;;;;116.65;56.58;;;;;;;0.09;78.78;96781.69;1805959;78;25858;-85
2021/12/30 00:28:51;;;;;;;113.05;53.30;;;;;;;0.07;78.80;96788.98;1805849;78;27469;-85
2021/12/30 00:31:18;;;;;;;101.95;50.98;;;;;;;0.04;78.86;96801.23;1805768;78;25712;-85
2021/12/30 00:33:45;;;;;;;103.95;49.08;;;;;;;0.06;78.92;96803.23;1805827;78;25684;-85
2021/12/30 00:36:13;;;;;;;119.05;53.52;;;;;;;0.07;78.98;96807.55;1805838;78;26108;-85
2021/12/30 00:38:43;;;;;;;102.78;48.52;;;;;;;0.05;79.01;96810.86;1805832;78;25741;-86
2021/12/30 00:41:10;;;;;;;107.83;49.08;;;;;;;0.08;79.13;96815.86;1805789;78;27357;-85
2021/12/30 00:43:37;;;;;;;124.07;54.58;;;;;;;0.12;79.26;96818.50;1805725;78;25705;-85
2021/12/30 00:46:07;;;;;;;135.82;56.00;;;;;;;0.17;79.28;96817.53;1805871;78;25657;-85
2021/12/30 00:48:34;;;;;;;127.42;53.90;;;;;;;0.21;79.24;96808.77;1805764;78;26737;-85
2021/12/30 00:51:01;;;;;;;128.85;54.38;;;;;;;0.20;79.23;96814.56;1805916;78;25810;-83
2021/12/30 00:53:28;;;;;;;143.78;58.38;;;;;;;0.24;79.27;96811.10;1801636;79;27569;-85
2021/12/30 00:55:54;;;;;;;117.20;49.77;;;;;;;0.27;79.26;96819.55;1800073;79;25702;-85
2021/12/30 00:58:21;;;;;;;97.80;46.58;;;;;;;0.28;79.22;96817.23;1800185;79;25787;-84
2021/12/30 01:00:49;;;;;;;99.30;46.48;;;;;;;0.31;79.28;96816.09;1800241;79;25975;-85
2021/12/30 01:03:17;;;;;;;102.27;43.73;;;;;;;0.34;79.28;96824.56;1800135;79;25717;-85
2021/12/30 01:05:45;;;;;;;96.78;43.10;;;;;;;0.30;79.28;96823.22;1800203;79;27578;-85
2021/12/30 01:08:14;;;;;;;119.40;50.85;;;;;;;0.33;79.35;96818.92;1799770;79;25725;-85
2021/12/30 01:10:43;;;;;;;101.50;45.25;;;;;;;0.35;79.40;96822.25;1800309;79;25811;-85
2021/12/30 01:13:16;;;;;;;102.22;43.92;;;;;;;0.38;79.40;96821.56;1800264;79;25944;-85
2021/12/30 01:15:49;;;;;;;107.05;47.40;;;;;;;0.40;79.44;96819.58;1799442;78;25900;-86
2021/12/30 01:18:40;;;;;;;105.78;46.30;;;;;;;0.43;79.48;96820.59;1782868;79;27368;-85
2021/12/30 01:21:09;;;;;;;114.72;45.50;;;;;;;0.49;79.51;96836.70;1767846;80;25773;-85
2021/12/30 01:23:36;;;;;;;105.80;45.88;;;;;;;0.57;79.48;96841.22;1783970;79;25680;-86
2021/12/30 01:26:05;;;;;;;119.50;50.33;;;;;;;0.55;79.35;96836.55;1807354;78;26115;-85
2021/12/30 01:28:32;;;;;;;110.60;46.25;;;;;;;0.57;79.36;96835.90;1801409;78;25674;-86
2021/12/30 01:30:59;;;;;;;99.25;44.63;;;;;;;0.60;79.32;96838.23;1802228;78;27541;-85
2021/12/30 01:33:26;;;;;;;90.92;41.70;;;;;;;0.60;79.31;96836.91;1794254;78;25682;-86
2021/12/30 01:35:53;;;;;;;88.97;40.85;;;;;;;0.59;79.31;96844.55;1784395;79;25757;-86
2021/12/30 01:38:20;;;;;;;113.55;47.62;;;;;;;0.55;79.33;96825.44;1784289;79;26464;-86
2021/12/30 01:40:51;;;;;;;109.40;49.30;;;;;;;0.54;79.44;96829.08;1784433;79;25698;-86
2021/12/30 01:43:19;;;;;;;86.05;39.05;;;;;;;0.55;79.52;96831.24;1784281;79;27418;-85
2021/12/30 01:45:47;;;;;;;102.87;43.78;;;;;;;0.57;79.58;96834.58;1784244;79;25789;-85
2021/12/30 01:48:14;;;;;;;89.35;41.55;;;;;;;0.61;79.66;96846.02;1784296;79;25785;-85
2021/12/30 01:50:42;;;;;;;107.58;47.13;;;;;;;0.62;79.69;96845.52;1784393;79;25969;-85
2021/12/30 01:53:10;;;;;;;93.40;40.98;;;;;;;0.61;79.72;96843.86;1782935;79;25758;-85
2021/12/30 01:55:38;;;;;;;80.77;37.70;;;;;;;0.61;79.73;96839.88;1786127;79;28071;-85
2021/12/30 01:58:07;;;;;;;75.47;34.83;;;;;;;0.60;79.79;96840.89;1789613;79;25801;-85
2021/12/30 02:00:37;;;;;;;66.47;31.40;;;;;;;0.60;79.91;96840.89;1781269;79;25315;-85
2021/12/30 02:03:05;;;;;;;62.15;31.65;;;;;;;0.63;80.01;96851.17;1787831;79;26032;-85
2021/12/30 02:05:33;;;;;;;53.68;29.18;;;;;;;0.63;80.00;96851.17;1781090;79;26220;-85
2021/12/30 02:08:00;;;;;;;52.58;27.82;;;;;;;0.61;80.01;96848.67;1781296;79;27527;-85
2021/12/30 02:10:27;;;;;;;56.58;28.40;;;;;;;0.60;80.02;96851.52;1781261;79;25727;-85
2021/12/30 02:12:53;;;;;;;49.63;26.40;;;;;;;0.63;80.08;96861.30;1781301;79;26443;-85
2021/12/30 02:15:20;;;;;;;47.98;26.52;;;;;;;0.68;80.07;96859.49;1781389;79;26055;-85
2021/12/30 02:17:49;;;;;;;53.63;27.67;;;;;;;0.71;80.04;96865.32;1793820;79;25688;-84
2021/12/30 02:20:24;;;;;;;47.05;24.35;;;;;;;0.67;80.02;96856.50;1780828;79;28087;-85
2021/12/30 02:22:51;;;;;;;51.18;25.90;;;;;;;0.66;80.10;96861.48;1751912;79;25756;-85
2021/12/30 02:25:18;;;;;;;47.88;26.15;;;;;;;0.66;80.15;96854.84;1741614;81;25245;-84
2021/12/30 02:27:44;;;;;;;51.77;27.10;;;;;;;0.67;80.18;96852.02;1733063;81;26088;-85
2021/12/30 02:30:11;;;;;;;45.30;24.92;;;;;;;0.71;80.18;96845.89;1741729;82;25810;-85
2021/12/30 02:32:38;;;;;;;50.23;25.45;;;;;;;0.72;80.18;96842.25;1732264;81;27364;-85
2021/12/30 02:35:06;;;;;;;41.90;23.00;;;;;;;0.73;80.18;96847.86;1761725;78;26086;-84
2021/12/30 02:37:32;;;;;;;46.18;25.57;;;;;;;0.76;80.20;96842.73;1753084;81;25275;-85
2021/12/30 02:39:59;;;;;;;47.03;25.68;;;;;;;0.74;80.16;96844.22;1753098;81;26565;-83
2021/12/30 02:42:26;;;;;;;46.40;25.25;;;;;;;0.77;80.18;96846.55;1753133;81;25784;-84
2021/12/30 02:44:53;;;;;;;47.13;25.10;;;;;;;0.80;80.15;96847.56;1753013;81;27377;-84
2021/12/30 02:47:19;;;;;;;46.80;25.43;;;;;;;0.79;80.09;96847.72;1753024;81;25771;-85
2021/12/30 02:49:46;;;;;;;41.20;23.35;;;;;;;0.78;80.09;96854.86;1753141;80;25709;-82
2021/12/30 02:52:13;;;;;;;47.58;25.45;;;;;;;0.74;80.09;96845.54;1753095;81;25983;-85
2021/12/30 02:54:42;;;;;;;46.02;25.68;;;;;;;0.78;80.18;96852.20;1753174;81;25803;-83
2021/12/30 02:57:10;;;;;;;50.60;27.77;;;;;;;0.75;80.17;96849.86;1752955;81;27521;-83
2021/12/30 02:59:37;;;;;;;41.85;23.35;;;;;;;0.76;80.23;96858.66;1752904;81;25413;-82
2021/12/30 03:02:05;;;;;;;47.40;24.35;;;;;;;0.75;80.24;96857.83;1753048;81;25790;-85
2021/12/30 03:04:31;;;;;;;45.70;25.17;;;;;;;0.74;80.31;96857.50;1752945;81;25989;-83
2021/12/30 03:06:59;;;;;;;48.48;25.60;;;;;;;0.78;80.42;96861.50;1753083;81;26357;-82
2021/12/30 03:09:26;;;;;;;44.42;23.62;;;;;;;0.83;80.36;96859.69;1752955;81;28187;-82
2021/12/30 03:11:55;;;;;;;41.25;22.42;;;;;;;0.86;80.34;96864.16;1752884;80;25275;-83
2021/12/30 03:14:24;;;;;;;45.05;23.83;;;;;;;0.88;80.32;96860.84;1753039;81;25808;-84
2021/12/30 03:16:50;;;;;;;50.35;25.05;;;;;;;0.92;80.28;96854.22;1752866;81;27022;-82
2021/12/30 03:19:17;;;;;;;56.08;26.80;;;;;;;0.93;80.20;96859.86;1752788;81;25665;-84
2021/12/30 03:21:43;;;;;;;65.78;35.78;;;;;;;0.95;80.16;96850.41;1727365;81;27415;-83
2021/12/30 03:24:10;;;;;;;73.55;40.08;;;;;;;0.97;80.14;96851.88;1722792;81;26225;-83
2021/12/30 03:26:37;;;;;;;72.53;39.53;;;;;;;1.00;80.08;96850.22;1751121;81;25704;-85
2021/12/30 03:29:05;;;;;;;87.15;44.75;;;;;;;0.99;79.99;96849.89;1746013;81;26068;-82
2021/12/30 03:31:32;;;;;;;94.70;51.92;;;;;;;0.96;79.98;96848.08;1723076;82;25653;-83
2021/12/30 03:33:59;;;;;;;90.45;46.45;;;;;;;0.99;80.00;96853.05;1722521;82;27362;-83
2021/12/30 03:36:25;;;;;;;89.65;47.35;;;;;;;1.01;79.97;96846.57;1722218;81;25800;-83
2021/12/30 03:38:53;;;;;;;93.85;51.73;;;;;;;0.97;79.88;96849.22;1722421;81;25686;-84
2021/12/30 03:41:25;;;;;;;104.87;56.92;;;;;;;0.95;79.90;96847.75;1722435;81;25970;-84
2021/12/30 03:43:52;;;;;;;77.50;39.90;;;;;;;0.95;79.93;96858.38;1722520;81;25740;-85
2021/12/30 03:46:19;;;;;;;66.75;37.05;;;;;;;0.93;79.93;96863.85;1722303;81;28161;-86
2021/12/30 03:48:46;;;;;;;65.42;36.05;;;;;;;0.96;80.11;96866.19;1722329;81;25777;-83
2021/12/30 03:51:22;;;;;;;62.90;32.25;;;;;;;0.98;80.09;96874.80;1722419;81;25780;-85
2021/12/30 03:53:55;;;;;;;58.17;31.73;;;;;;;0.98;80.10;96882.77;1722435;81;25999;-83
2021/12/30 03:56:27;;;;;;;58.80;32.55;;;;;;;1.01;80.10;96886.94;1722182;82;25765;-84
2021/12/30 03:58:54;;;;;;;59.08;32.38;;;;;;;0.98;79.99;96890.75;1722664;81;27406;-84
2021/12/30 04:01:24;;;;;;;61.42;32.80;;;;;;;0.95;79.95;96895.58;1722295;81;25778;-84
2021/12/30 04:03:52;;;;;;;60.55;32.58;;;;;;;0.94;79.96;96902.72;1722272;81;25819;-83
2021/12/30 04:06:20;;;;;;;53.55;29.67;;;;;;;0.97;79.96;96913.00;1722341;81;26805;-85
2021/12/30 04:08:46;;;;;;;55.10;30.00;;;;;;;0.94;79.85;96912.02;1722469;81;26312;-82
2021/12/30 04:11:13;;;;;;;54.65;29.48;;;;;;;0.94;79.91;96925.80;1722396;82;28270;-82
2021/12/30 04:13:40;;;;;;;61.33;30.48;;;;;;;0.93;79.91;96923.64;1722333;81;25790;-84
2021/12/30 04:16:07;;;;;;;49.38;24.98;;;;;;;0.90;79.95;96917.32;1722649;81;25730;-82
2021/12/30 04:18:34;;;;;;;44.00;24.65;;;;;;;0.90;80.05;96919.98;1726851;81;26012;-83
2021/12/30 04:21:01;;;;;;;45.12;27.30;;;;;;;0.94;80.15;96918.66;1722195;82;25280;-85
2021/12/30 04:23:29;;;;;;;43.45;24.12;;;;;;;1.02;80.23;96925.81;1722355;81;27415;-83
2021/12/30 04:25:56;;;;;;;43.45;23.62;;;;;;;1.05;80.21;96923.66;1722305;82;25849;-82
2021/12/30 04:28:22;;;;;;;40.20;21.77;;;;;;;1.02;80.13;96925.31;1722420;82;25740;-85
2021/12/30 04:30:49;;;;;;;43.73;20.85;;;;;;;1.01;80.17;96920.99;1722383;82;26030;-83
2021/12/30 04:33:15;;;;;;;37.75;20.95;;;;;;;1.06;80.22;96920.02;1722381;82;25804;-82
2021/12/30 04:35:42;;;;;;;36.53;19.80;;;;;;;1.09;80.23;96920.99;1722230;82;27354;-82
2021/12/30 04:38:09;;;;;;;37.38;19.42;;;;;;;1.09;80.19;96924.98;1722322;81;25877;-82
2021/12/30 04:40:35;;;;;;;37.95;20.82;;;;;;;1.02;80.13;96917.34;1722402;82;25756;-83
2021/12/30 04:43:02;;;;;;;36.38;19.20;;;;;;;1.04;80.28;96922.50;1722394;82;26753;-83
2021/12/30 04:45:29;;;;;;;36.53;20.08;;;;;;;1.06;80.29;96922.67;1722441;82;25736;-83
2021/12/30 04:47:56;;;;;;;34.08;20.80;;;;;;;1.06;80.23;96926.66;1722422;82;28091;-83
2021/12/30 04:50:23;;;;;;;41.48;22.93;;;;;;;1.08;80.29;96931.32;1722307;81;25786;-83
2021/12/30 04:52:49;;;;;;;43.40;24.07;;;;;;;1.13;80.27;96933.97;1722254;82;25741;-83
2021/12/30 04:55:16;;;;;;;39.58;22.42;;;;;;;1.13;80.28;96944.10;1722373;81;25979;-84
2021/12/30 04:57:42;;;;;;;43.83;23.27;;;;;;;1.18;80.22;96948.94;1722542;83;25406;-83
2021/12/30 05:00:12;;;;;;;40.63;22.48;;;;;;;1.19;80.18;96945.28;1722275;81;27323;-83
2021/12/30 05:02:51;;;;;;;39.10;22.95;;;;;;;1.21;80.19;96949.42;1722249;82;25745;-84
2021/12/30 05:05:08;;;;;;;33.75;19.25;;;;;;;1.22;80.17;96951.09;1720951;82;25874;-83
2021/12/30 05:07:35;;;;;;;39.50;20.65;;;;;;;1.26;80.21;96952.43;1722409;82;26164;-83
2021/12/30 05:10:02;;;;;;;34.48;19.55;;;;;;;1.30;80.19;96959.59;1722502;82;25669;-83
2021/12/30 05:12:28;;;;;;;34.85;18.80;;;;;;;1.32;80.14;96961.59;1722497;82;27350;-83
2021/12/30 05:14:55;;;;;;;31.57;18.02;;;;;;;1.31;80.02;96967.41;1722279;81;25768;-85
2021/12/30 05:17:22;;;;;;;35.08;20.62;;;;;;;1.31;80.02;96967.41;1722372;81;25777;-84
2021/12/30 05:19:49;;;;;;;39.20;22.07;;;;;;;1.32;80.02;96968.23;1722371;81;26010;-84
2021/12/30 05:22:16;;;;;;;40.23;21.07;;;;;;;1.33;79.97;96975.20;1722113;81;25280;-83
2021/12/30 05:24:42;;;;;;;38.13;20.50;;;;;;;1.31;79.96;96979.38;1722408;81;27315;-83
2021/12/30 05:27:09;;;;;;;37.95;21.07;;;;;;;1.29;79.97;96976.04;1722257;81;25852;-83
2021/12/30 05:29:36;;;;;;;40.03;22.13;;;;;;;1.31;80.02;96981.20;1723247;81;25737;-83
2021/12/30 05:32:03;;;;;;;58.83;28.73;;;;;;;1.33;80.04;96981.84;1732845;80;26022;-82
2021/12/30 05:34:30;;;;;;;62.78;29.95;;;;;;;1.30;80.02;96979.03;1722345;82;25705;-83
2021/12/30 05:36:56;;;;;;;55.58;27.93;;;;;;;1.33;80.13;96987.16;1741087;81;27489;-82
2021/12/30 05:39:23;;;;;;;57.00;29.18;;;;;;;1.36;80.13;96997.48;1752831;81;25922;-82
2021/12/30 05:41:49;;;;;;;66.90;33.30;;;;;;;1.38;80.14;96990.17;1752872;81;25785;-83
2021/12/30 05:44:16;;;;;;;69.07;33.85;;;;;;;1.40;80.07;96992.17;1752763;81;25987;-83
2021/12/30 05:46:42;;;;;;;84.75;42.73;;;;;;;1.39;80.05;96986.02;1734372;80;25685;-83
2021/12/30 05:49:09;;;;;;;80.87;41.63;;;;;;;1.38;80.09;96983.03;1727146;81;27338;-83
2021/12/30 05:51:36;;;;;;;70.65;36.35;;;;;;;1.41;80.13;96989.85;1722777;82;25321;-83
2021/12/30 05:54:02;;;;;;;64.30;33.40;;;;;;;1.41;80.15;96985.86;1723076;82;25677;-84
2021/12/30 05:56:29;;;;;;;66.82;34.27;;;;;;;1.47;80.25;96979.03;1722929;82;26568;-83
2021/12/30 05:58:56;;;;;;;53.10;28.35;;;;;;;1.49;80.25;96979.21;1723014;82;25742;-83
2021/12/30 06:01:22;;;;;;;52.78;26.33;;;;;;;1.48;80.21;96975.38;1722967;82;27526;-85
2021/12/30 06:03:49;;;;;;;58.05;28.50;;;;;;;1.47;80.31;96982.53;1723025;82;26444;-85
2021/12/30 06:06:15;;;;;;;51.02;26.42;;;;;;;1.45;80.37;96993.33;1723011;82;25712;-85
2021/12/30 06:08:42;;;;;;;59.05;29.77;;;;;;;1.48;80.47;97001.48;1723025;82;26758;-85
2021/12/30 06:11:08;;;;;;;69.30;30.88;;;;;;;1.47;80.48;97005.14;1722896;82;25710;-84
2021/12/30 06:13:35;;;;;;;69.80;31.25;;;;;;;1.53;80.62;97011.64;1722989;82;27350;-85
2021/12/30 06:16:02;;;;;;;84.25;37.90;;;;;;;1.57;80.66;97002.34;1722952;82;25721;-85
2021/12/30 06:18:28;;;;;;;87.97;41.48;;;;;;;1.59;80.63;97001.66;1723048;82;25697;-85
2021/12/30 06:20:55;;;;;;;88.82;43.08;;;;;;;1.61;80.63;96995.18;1722712;82;26062;-85
2021/12/30 06:23:22;;;;;;;91.37;39.55;;;;;;;1.63;80.64;96999.84;1723064;82;25722;-84
2021/12/30 06:25:48;;;;;;;74.03;35.85;;;;;;;1.68;80.73;97001.52;1723100;82;27362;-84
2021/12/30 06:28:15;;;;;;;69.67;31.27;;;;;;;1.73;80.70;96996.52;1722888;82;25906;-83
2021/12/30 06:30:41;;;;;;;51.75;26.77;;;;;;;1.78;80.71;96997.36;1722997;82;25684;-83
2021/12/30 06:33:08;;;;;;;52.83;27.50;;;;;;;1.85;80.70;97008.16;1723016;82;26639;-85
2021/12/30 06:35:35;;;;;;;56.30;27.77;;;;;;;1.90;80.69;97013.82;1722668;82;25717;-85
2021/12/30 06:38:03;;;;;;;57.10;27.87;;;;;;;1.94;80.69;97009.31;1722490;81;27416;-86
2021/12/30 06:40:30;;;;;;;62.58;29.02;;;;;;;2.00;80.72;97027.79;1722425;81;25650;-85
2021/12/30 06:42:57;;;;;;;47.15;25.10;;;;;;;2.03;80.71;97030.13;1722451;82;25708;-84
2021/12/30 06:45:24;;;;;;;51.60;24.82;;;;;;;2.07;80.70;97027.44;1722450;81;26824;-85
2021/12/30 06:47:51;;;;;;;53.30;26.17;;;;;;;2.10;80.66;97033.77;1722621;81;25697;-87
2021/12/30 06:50:20;;;;;;;54.38;28.00;;;;;;;2.13;80.59;97037.44;1722497;82;28320;-86
2021/12/30 06:52:46;;;;;;;62.88;30.00;;;;;;;2.15;80.50;97044.77;1722427;81;25750;-86
2021/12/30 06:55:14;;;;;;;64.45;30.80;;;;;;;2.16;80.44;97043.27;1722538;81;25774;-86
2021/12/30 06:57:41;;;;;;;64.05;27.58;;;;;;;2.19;80.48;97038.08;1722479;81;26091;-86
2021/12/30 07:00:10;;;;;;;70.25;30.80;;;;;;;2.21;80.50;97034.75;1722557;82;25319;-85
2021/12/30 07:02:37;;;;;;;59.95;27.10;;;;;;;2.27;80.56;97046.08;1722526;83;27368;-85
2021/12/30 07:05:04;;;;;;;57.53;27.05;;;;;;;2.31;80.48;97047.39;1722327;82;25255;-85
2021/12/30 07:07:31;;;;;;;64.82;28.83;;;;;;;2.32;80.38;97048.22;1722173;81;26284;-86
2021/12/30 07:09:57;;;;;;;60.17;28.62;;;;;;;2.28;80.28;97051.74;1722431;82;26927;-85
2021/12/30 07:12:24;;;;;;;51.45;28.15;;;;;;;2.30;80.29;97059.04;1722443;81;25753;-86
2021/12/30 07:14:51;;;;;;;57.50;29.50;;;;;;;2.34;80.33;97064.38;1722429;82;28020;-85
2021/12/30 07:17:17;;;;;;;54.18;27.98;;;;;;;2.33;80.18;97050.72;1722329;82;26100;-85
2021/12/30 07:19:44;;;;;;;54.00;29.37;;;;;;;2.30;80.14;97057.70;1722443;81;25760;-85
2021/12/30 07:22:10;;;;;;;49.27;27.07;;;;;;;2.30;80.17;97051.55;1722409;83;26082;-85
2021/12/30 07:24:37;;;;;;;51.73;26.85;;;;;;;2.32;80.17;97055.72;1722460;82;25698;-85
2021/12/30 07:27:04;;;;;;;52.65;27.55;;;;;;;2.35;80.25;97058.55;1722373;81;27357;-86
2021/12/30 07:29:30;;;;;;;51.00;28.73;;;;;;;2.34;80.15;97052.88;1722380;81;25732;-86
2021/12/30 07:31:57;;;;;;;52.45;30.15;;;;;;;2.34;80.14;97055.55;1722420;81;25721;-85
2021/12/30 07:34:23;;;;;;;61.75;33.98;;;;;;;2.35;80.14;97043.40;1741918;81;26086;-83
2021/12/30 07:36:50;;;;;;;63.83;34.25;;;;;;;2.35;80.03;97046.06;1738311;81;25674;-84
2021/12/30 07:39:16;;;;;;;63.55;31.73;;;;;;;2.36;79.98;97042.90;1722511;82;27421;-84
2021/12/30 07:41:43;;;;;;;60.88;32.93;;;;;;;2.35;79.99;97047.89;1722462;82;25884;-84
2021/12/30 07:44:10;;;;;;;61.25;33.45;;;;;;;2.35;80.00;97046.56;1723798;81;26254;-83
2021/12/30 07:46:36;;;;;;;72.50;38.80;;;;;;;2.32;79.99;97044.22;1734914;81;26020;-85
2021/12/30 07:49:05;;;;;;;81.82;42.13;;;;;;;2.34;80.02;97044.89;1736631;81;25666;-83
2021/12/30 07:51:31;;;;;;;79.27;41.25;;;;;;;2.34;79.97;97049.72;1749411;81;27372;-84
2021/12/30 07:53:58;;;;;;;86.37;44.77;;;;;;;2.36;79.97;97056.22;1722393;83;25884;-86
2021/12/30 07:56:25;;;;;;;85.25;46.40;;;;;;;2.38;80.02;97048.39;1722371;83;26018;-86
2021/12/30 07:58:51;;;;;;;60.38;32.70;;;;;;;2.42;80.04;97064.34;1740162;81;26009;-85
2021/12/30 08:01:18;;;;;;;66.28;35.40;;;;;;;2.49;80.18;97068.02;1771597;80;26038;-85
2021/12/30 08:03:45;;;;;;;57.17;29.60;;;;;;;2.61;80.27;97063.67;1771560;80;28005;-85
2021/12/30 08:06:11;;;;;;;62.88;32.58;;;;;;;2.71;80.29;97069.64;1771151;80;25781;-86
2021/12/30 08:08:39;;;;;;;54.50;31.20;;;;;;;2.80;80.30;97075.27;1771218;80;25775;-86
2021/12/30 08:11:06;;;;;;;50.48;28.90;;;;;;;2.90;80.31;97071.91;1771477;80;26785;-86
2021/12/30 08:13:33;;;;;;;47.17;27.90;;;;;;;3.04;80.28;97081.02;1771520;80;25912;-86
2021/12/30 08:15:59;;;;;;;23.10;14.85;;;;;;;3.14;80.21;97075.81;1771501;80;27811;-86
2021/12/30 08:18:26;;;;;;;23.12;14.83;;;;;;;3.29;80.22;97069.25;1771425;80;26307;-87
2021/12/30 08:20:53;;;;;;;21.48;12.70;;;;;;;3.43;80.13;97073.86;1771461;80;25770;-86
2021/12/30 08:23:19;;;;;;;22.15;13.75;;;;;;;3.60;80.02;97078.61;1771405;80;26080;-87
2021/12/30 08:25:49;;;;;;;36.77;21.17;;;;;;;3.71;79.87;97070.20;1771607;79;25761;-86
2021/12/30 08:28:15;;;;;;;48.20;29.07;;;;;;;3.81;79.67;97080.14;1771463;79;28102;-84
2021/12/30 08:30:42;;;;;;;60.85;35.48;;;;;;;3.88;79.46;97073.08;1771335;80;26096;-86
2021/12/30 08:33:08;;;;;;;61.25;34.95;;;;;;;3.93;79.27;97080.56;1771499;80;25773;-86
2021/12/30 08:35:35;;;;;;;66.10;37.60;;;;;;;3.96;79.17;97078.88;1771478;80;26270;-86
2021/12/30 08:38:01;;;;;;;26.17;16.10;;;;;;;3.95;79.01;97081.22;1771528;80;25790;-86
2021/12/30 08:40:30;;;;;;;24.72;14.95;;;;;;;3.98;79.00;97084.34;1771493;80;28181;-86
2021/12/30 08:42:56;;;;;;;31.82;17.95;;;;;;;4.10;79.03;97078.11;1771345;80;26006;-86
2021/12/30 08:45:23;;;;;;;24.07;13.40;;;;;;;4.22;78.92;97072.67;1771460;79;25902;-87
2021/12/30 08:47:49;;;;;;;21.30;11.33;;;;;;;4.32;78.79;97067.08;1771394;80;26130;-85
2021/12/30 08:50:17;;;;;;;20.00;10.53;;;;;;;4.41;78.70;97057.13;1771482;80;25730;-86
2021/12/30 08:52:45;;;;;;;20.52;10.23;;;;;;;4.47;78.53;97051.87;1771472;80;27293;-87
2021/12/30 08:55:14;;;;;;;20.57;11.60;;;;;;;4.56;78.38;97058.00;1771454;80;25636;-86
2021/12/30 08:57:42;;;;;;;17.85;10.78;;;;;;;4.62;78.25;97069.28;1771428;80;25293;-86
2021/12/30 09:00:17;;;;;;;21.68;12.25;;;;;;;4.65;78.06;97073.77;1771466;80;26001;-86
2021/12/30 09:02:44;;;;;;;16.62;9.83;;;;;;;4.70;77.95;97078.08;1771610;80;26337;-86
2021/12/30 09:05:12;;;;;;;20.08;12.23;;;;;;;4.77;77.86;97084.02;1771495;80;28062;-87
2021/12/30 09:07:39;;;;;;;43.23;22.15;;;;;;;4.83;77.76;97081.97;1771147;80;25313;-86
2021/12/30 09:10:09;;;;;;;34.58;17.25;;;;;;;4.91;77.73;97073.84;1771478;80;25738;-84
2021/12/30 09:12:36;;;;;;;38.78;17.85;;;;;;;5.00;77.70;97074.06;1747115;80;25968;-86
2021/12/30 09:15:06;;;;;;;35.68;17.07;;;;;;;5.06;77.41;97069.33;1752024;81;25869;-86
2021/12/30 09:17:33;;;;;;;26.95;13.00;;;;;;;5.14;77.36;97075.08;1722329;81;27366;-86
2021/12/30 09:19:59;;;;;;;16.57;10.05;;;;;;;5.23;77.20;97079.31;1722386;83;26465;-85
2021/12/30 09:22:26;;;;;;;19.80;11.65;;;;;;;5.29;77.13;97071.39;1722338;83;25693;-87
2021/12/30 09:24:52;;;;;;;17.40;10.43;;;;;;;5.37;77.14;97075.80;1739924;82;25811;-84
2021/12/30 09:27:19;;;;;;;25.75;12.78;;;;;;;5.41;76.92;97080.61;1725620;81;26107;-84
2021/12/30 09:29:46;;;;;;;26.30;13.45;;;;;;;5.47;76.69;97088.89;1739978;81;27347;-84
2021/12/30 09:32:12;;;;;;;19.40;12.13;;;;;;;5.51;76.41;97086.17;1733156;81;25872;-85
2021/12/30 09:34:39;;;;;;;21.80;11.63;;;;;;;5.53;76.28;97093.00;1736981;81;25668;-85
2021/12/30 09:37:09;;;;;;;18.52;9.50;;;;;;;5.54;76.10;97085.30;1741203;81;26010;-85
2021/12/30 09:39:36;;;;;;;17.82;10.25;;;;;;;5.55;75.99;97086.12;1752497;81;25825;-85
2021/12/30 09:42:04;;;;;;;19.80;11.50;;;;;;;5.59;75.78;97092.75;1737565;81;27347;-85
2021/12/30 09:44:31;;;;;;;18.77;10.32;;;;;;;5.59;75.76;97092.75;1736486;81;25793;-85
2021/12/30 09:46:58;;;;;;;17.40;10.72;;;;;;;5.58;75.68;97091.91;1740844;80;25790;-85
2021/12/30 09:49:24;;;;;;;22.20;12.47;;;;;;;5.62;75.62;97088.36;1763071;80;25951;-84
2021/12/30 09:51:51;;;;;;;18.92;11.25;;;;;;;5.67;75.55;97091.31;1758166;80;25881;-84
2021/12/30 09:54:18;;;;;;;19.00;11.90;;;;;;;5.68;75.34;97092.44;1756781;80;27424;-84
2021/12/30 09:56:45;;;;;;;21.45;12.25;;;;;;;5.65;75.26;97089.33;1755386;80;25792;-85
2021/12/30 09:59:13;;;;;;;19.48;11.63;;;;;;;5.67;75.17;97085.96;1755383;80;25819;-84
2021/12/30 10:01:43;;;;;;;21.77;12.43;;;;;;;5.67;75.11;97089.98;1760022;80;25973;-84
2021/12/30 10:04:13;;;;;;;21.12;12.58;;;;;;;5.68;75.08;97080.89;1762929;80;44021;-85
2021/12/30 10:06:49;;;;;;;24.18;12.13;;;;;;;5.67;74.92;97073.91;1760479;80;27411;-85
2021/12/30 10:09:16;;;;;;;18.90;10.05;;;;;;;5.67;74.75;97073.91;1730729;81;25766;-85
2021/12/30 10:11:50;;;;;;;18.75;9.80;;;;;;;5.65;74.82;97069.25;1733913;81;25763;-85
2021/12/30 10:14:30;;;;;;;17.52;10.20;;;;;;;5.69;74.81;97069.17;1746282;81;26743;-85
2021/12/30 10:17:22;;;;;;;20.77;10.53;;;;;;;5.68;74.60;97061.64;1745814;81;25813;-85
2021/12/30 10:19:51;;;;;;;18.73;9.70;;;;;;;5.69;74.63;97067.83;1722902;81;27313;-85
2021/12/30 10:22:22;;;;;;;21.20;10.53;;;;;;;5.73;74.73;97061.09;1751576;81;25640;-85
2021/12/30 10:24:51;;;;;;;22.80;11.50;;;;;;;5.75;74.67;97067.09;1752470;81;25816;-84
2021/12/30 10:27:30;;;;;;;19.60;11.30;;;;;;;5.78;74.57;97073.42;1752490;81;26055;-84
2021/12/30 10:29:57;;;;;;;26.97;12.82;;;;;;;5.82;74.54;97065.30;1749123;81;25820;-84
2021/12/30 10:32:29;;;;;;;22.48;10.95;;;;;;;5.87;74.50;97070.94;1729696;81;27436;-85
2021/12/30 10:35:09;;;;;;;19.23;10.10;;;;;;;5.87;74.50;97068.77;1728531;81;25915;-85
2021/12/30 10:37:39;;;;;;;17.00;7.92;;;;;;;5.92;74.53;97069.03;1754186;80;25784;-85
2021/12/30 10:40:26;;;;;;;19.35;9.20;;;;;;;5.98;74.64;97076.33;1758890;81;26016;-85
2021/12/30 10:43:26;;;;;;;18.42;8.78;;;;;;;6.02;74.60;97075.77;1741777;81;25259;-85
2021/12/30 10:46:13;;;;;;;19.17;9.53;;;;;;;6.07;74.64;97078.69;1744807;80;27379;-85
2021/12/30 10:49:04;;;;;;;23.47;14.40;;;;;;;6.11;74.55;97068.42;1728774;82;25818;-85
2021/12/30 10:51:44;;;;;;;19.85;11.33;;;;;;;6.16;74.60;97059.82;1743347;80;25787;-85
2021/12/30 10:54:30;;;;;;;18.12;10.60;;;;;;;6.21;74.51;97058.20;1775202;80;25987;-85
2021/12/30 10:57:08;;;;;;;17.75;9.90;;;;;;;6.23;74.40;97048.64;1775239;80;25694;-85
2021/12/30 10:59:42;;;;;;;16.97;9.55;;;;;;;6.23;74.42;97048.12;1775222;80;27333;-85
2021/12/30 11:02:20;;;;;;;16.27;9.70;;;;;;;6.28;74.33;97051.04;1775098;80;25666;-85
2021/12/30 11:04:57;;;;;;;18.05;9.63;;;;;;;6.30;74.29;97048.17;1775220;80;25722;-85
2021/12/30 11:07:29;;;;;;;14.70;8.20;;;;;;;6.27;74.20;97047.23;1775151;80;25965;-85
2021/12/30 11:09:59;;;;;;;18.48;9.30;;;;;;;6.25;74.17;97042.06;1775333;80;25761;-85
2021/12/30 11:12:41;;;;;;;15.15;8.03;;;;;;;6.27;74.04;97032.50;1775261;80;27539;-85
2021/12/30 11:15:21;;;;;;;10.95;7.00;;;;;;;6.26;74.05;97033.01;1775175;80;25806;-85
2021/12/30 11:17:49;;;;;;;13.75;7.55;;;;;;;6.27;74.01;97030.65;1750841;80;25743;-86
2021/12/30 11:20:19;;;;;;;12.05;7.45;;;;;;;6.28;74.04;97042.20;1753232;80;26054;-85
2021/12/30 11:22:49;;;;;;;12.53;7.47;;;;;;;6.24;73.92;97044.94;1757004;81;25838;-85
2021/12/30 11:25:18;;;;;;;15.68;6.35;;;;;;;6.22;73.96;97056.36;1757796;81;27374;-85
2021/12/30 11:27:44;;;;;;;14.68;7.55;;;;;;;6.22;74.00;97059.03;1757797;81;25803;-85
2021/12/30 11:30:18;;;;;;;14.35;7.97;;;;;;;6.18;74.03;97056.41;1757810;80;25256;-85